createdAt,value
2018-07-31T00:02:15.659Z,25.40
2018-07-31T00:04:44.205Z,25.40
2018-07-31T00:07:12.600Z,25.50
2018-07-31T00:09:41.040Z,25.70
2018-07-31T00:12:09.514Z,25.80
2018-07-31T00:14:37.917Z,25.90
2018-07-31T00:17:06.371Z,26.00
2018-07-31T00:19:34.795Z,26.20
2018-07-31T00:22:03.211Z,26.20
2018-07-31T00:24:31.791Z,26.20
2018-07-31T00:27:00.192Z,26.10
2018-07-31T00:29:28.615Z,26.20
2018-07-31T00:31:57.005Z,26.10
2018-07-31T00:34:25.395Z,26.20
2018-07-31T00:36:53.828Z,26.20
2018-07-31T00:39:22.216Z,26.10
2018-07-31T00:41:50.883Z,26.10
2018-07-31T00:44:19.296Z,26.10
2018-07-31T00:46:47.784Z,26.10
2018-07-31T00:49:16.208Z,26.10
2018-07-31T00:51:44.611Z,25.90
2018-07-31T00:54:13.099Z,25.90
2018-07-31T00:56:41.512Z,25.80
2018-07-31T00:59:09.915Z,25.50
2018-07-31T01:01:38.404Z,25.20
2018-07-31T01:04:07.044Z,24.90
2018-07-31T01:06:40.828Z,24.70
2018-07-31T01:09:10.165Z,24.50
2018-07-31T01:11:38.938Z,24.30
2018-07-31T01:14:08.181Z,24.30
2018-07-31T01:16:37.226Z,24.40
2018-07-31T01:19:05.818Z,24.30
2018-07-31T01:21:34.376Z,24.20
2018-07-31T01:24:02.757Z,24.10
2018-07-31T01:26:31.336Z,24.00
2018-07-31T01:28:59.824Z,23.90
2018-07-31T01:31:28.232Z,23.60
2018-07-31T01:33:56.637Z,23.50
2018-07-31T01:36:25.144Z,23.50
2018-07-31T01:38:53.572Z,23.50
2018-07-31T01:41:21.957Z,23.40
2018-07-31T01:43:50.567Z,23.40
2018-07-31T01:46:18.976Z,23.30
2018-07-31T01:48:47.489Z,23.30
2018-07-31T01:51:15.930Z,23.40
2018-07-31T01:53:44.345Z,23.60
2018-07-31T01:56:12.773Z,23.90
2018-07-31T01:58:41.198Z,24.20
2018-07-31T02:01:09.622Z,24.40
2018-07-31T02:03:38.033Z,24.60
2018-07-31T02:06:06.473Z,24.70
2018-07-31T02:08:34.862Z,24.90
2018-07-31T02:11:03.300Z,25.10
2018-07-31T02:13:31.694Z,25.20
2018-07-31T02:16:00.089Z,25.20
2018-07-31T02:18:28.511Z,25.20
2018-07-31T02:20:56.934Z,25.20
2018-07-31T02:23:25.310Z,25.30
2018-07-31T02:25:53.726Z,25.30
2018-07-31T02:28:22.269Z,25.20
2018-07-31T02:30:50.612Z,25.20
2018-07-31T02:33:19.004Z,25.20
2018-07-31T02:35:47.393Z,25.20
2018-07-31T02:38:15.833Z,25.30
2018-07-31T02:40:44.309Z,25.40
2018-07-31T02:43:12.814Z,25.40
2018-07-31T02:45:41.212Z,25.30
2018-07-31T02:48:09.612Z,25.20
2018-07-31T02:50:37.994Z,25.20
2018-07-31T02:53:06.387Z,25.10
2018-07-31T02:55:34.817Z,25.00
2018-07-31T02:58:03.272Z,24.90
2018-07-31T03:00:31.648Z,24.70
2018-07-31T03:03:00.028Z,24.60
2018-07-31T03:05:28.468Z,24.40
2018-07-31T03:07:56.859Z,24.30
2018-07-31T03:10:25.276Z,24.00
2018-07-31T03:12:53.680Z,23.70
2018-07-31T03:15:22.075Z,23.60
2018-07-31T03:17:50.488Z,23.50
2018-07-31T03:20:18.924Z,23.30
2018-07-31T03:22:47.342Z,23.10
2018-07-31T03:25:15.724Z,23.10
2018-07-31T03:27:44.127Z,23.00
2018-07-31T03:30:12.542Z,23.00
2018-07-31T03:32:40.924Z,22.80
2018-07-31T03:35:09.359Z,22.80
2018-07-31T03:37:37.750Z,22.80
2018-07-31T03:40:06.382Z,22.70
2018-07-31T03:42:34.720Z,22.60
2018-07-31T03:45:03.777Z,22.50
2018-07-31T03:47:32.165Z,22.50
2018-07-31T03:50:00.599Z,22.40
2018-07-31T03:52:28.982Z,22.30
2018-07-31T03:54:57.359Z,22.10
2018-07-31T03:57:26.020Z,22.00
2018-07-31T03:59:54.472Z,21.90
2018-07-31T04:02:23.016Z,21.90
2018-07-31T04:04:51.447Z,21.90
2018-07-31T04:07:19.851Z,21.90
2018-07-31T04:09:48.455Z,21.90
2018-07-31T04:12:16.839Z,21.70
2018-07-31T04:14:45.539Z,21.50
2018-07-31T04:17:13.970Z,21.30
2018-07-31T04:19:42.388Z,21.20
2018-07-31T04:22:10.874Z,21.20
2018-07-31T04:24:39.672Z,21.40
2018-07-31T04:27:08.063Z,21.40
2018-07-31T04:29:36.453Z,21.60
2018-07-31T04:32:04.851Z,21.70
2018-07-31T04:34:33.328Z,21.60
2018-07-31T04:37:01.811Z,21.70
2018-07-31T04:39:30.291Z,21.60
2018-07-31T04:41:58.861Z,21.70
2018-07-31T04:44:27.282Z,21.80
2018-07-31T04:46:55.688Z,21.80
2018-07-31T04:49:24.118Z,21.70
2018-07-31T04:51:52.571Z,21.80
2018-07-31T04:54:21.022Z,21.90
2018-07-31T04:56:49.932Z,22.10
2018-07-31T04:59:18.330Z,22.30
2018-07-31T05:01:46.859Z,22.50
2018-07-31T05:04:15.272Z,22.60
2018-07-31T05:06:43.708Z,22.60
2018-07-31T05:09:12.814Z,22.50
2018-07-31T05:11:41.708Z,22.50
2018-07-31T05:14:10.132Z,22.30
2018-07-31T05:16:38.575Z,22.30
2018-07-31T05:19:11.728Z,22.20
2018-07-31T05:21:40.962Z,22.20
2018-07-31T05:24:09.427Z,22.20
2018-07-31T05:26:37.834Z,22.10
2018-07-31T05:29:06.230Z,22.00
2018-07-31T05:31:35.034Z,21.90
2018-07-31T05:34:03.402Z,22.00
2018-07-31T05:36:31.818Z,22.30
2018-07-31T05:39:00.540Z,22.80
2018-07-31T05:41:28.939Z,23.30
2018-07-31T05:43:57.363Z,23.80
2018-07-31T05:46:25.920Z,24.20
2018-07-31T05:48:54.326Z,24.60
2018-07-31T05:51:22.828Z,24.90
2018-07-31T05:53:51.243Z,25.10
2018-07-31T05:56:19.651Z,25.30
2018-07-31T05:58:48.247Z,25.50
2018-07-31T06:01:16.683Z,25.80
2018-07-31T06:03:45.106Z,26.10
2018-07-31T06:06:13.541Z,26.50
2018-07-31T06:08:41.959Z,26.70
2018-07-31T06:11:10.360Z,27.00
2018-07-31T06:13:38.767Z,27.40
2018-07-31T06:16:07.203Z,27.60
2018-07-31T06:18:35.663Z,27.80
2018-07-31T06:21:04.223Z,28.10
2018-07-31T06:23:32.624Z,28.30
2018-07-31T06:26:01.109Z,28.60
2018-07-31T06:28:29.531Z,28.70
2018-07-31T06:30:59.271Z,28.40
2018-07-31T06:33:27.661Z,28.10
2018-07-31T06:35:56.151Z,27.50
2018-07-31T06:38:24.615Z,27.40
2018-07-31T06:40:53.331Z,27.00
2018-07-31T06:43:21.931Z,26.70
2018-07-31T06:45:50.338Z,26.50
2018-07-31T06:48:18.728Z,26.30
2018-07-31T06:50:47.174Z,26.20
2018-07-31T06:53:15.630Z,26.00
2018-07-31T06:55:44.232Z,26.00
2018-07-31T06:58:12.620Z,26.00
2018-07-31T07:00:41.032Z,26.00
2018-07-31T07:03:09.428Z,25.90
2018-07-31T07:05:37.858Z,25.80
2018-07-31T07:08:06.332Z,26.00
2018-07-31T07:10:34.757Z,26.20
2018-07-31T07:13:03.185Z,26.50
2018-07-31T07:15:31.599Z,26.60
2018-07-31T07:17:59.974Z,26.50
2018-07-31T07:20:28.359Z,26.40
2018-07-31T07:22:56.759Z,26.50
2018-07-31T07:25:25.212Z,26.60
2018-07-31T07:27:53.675Z,27.00
2018-07-31T07:30:22.072Z,27.60
2018-07-31T07:32:50.476Z,28.00
2018-07-31T07:35:18.976Z,28.10
2018-07-31T07:37:47.393Z,28.20
2018-07-31T07:40:15.895Z,28.10
2018-07-31T07:42:44.264Z,28.00
2018-07-31T07:45:12.631Z,27.90
2018-07-31T07:47:41.202Z,27.60
2018-07-31T07:50:09.601Z,27.60
2018-07-31T07:52:38.021Z,27.50
2018-07-31T07:55:06.418Z,27.50
2018-07-31T07:57:34.958Z,27.40
2018-07-31T08:00:03.520Z,27.40
2018-07-31T08:02:32.064Z,27.30
2018-07-31T08:05:01.429Z,27.40
2018-07-31T08:07:29.914Z,27.60
2018-07-31T08:09:58.336Z,28.00
2018-07-31T08:12:26.792Z,28.50
2018-07-31T08:14:55.218Z,29.00
2018-07-31T08:17:23.604Z,29.30
2018-07-31T08:19:52.016Z,29.60
2018-07-31T08:22:20.607Z,29.60
2018-07-31T08:24:48.983Z,29.60
2018-07-31T08:27:17.451Z,29.70
2018-07-31T08:29:45.976Z,29.60
2018-07-31T08:32:14.491Z,29.70
2018-07-31T08:34:42.915Z,29.90
2018-07-31T08:37:11.438Z,29.80
2018-07-31T08:39:39.810Z,29.90
2018-07-31T08:42:08.333Z,30.20
2018-07-31T08:44:36.739Z,30.50
2018-07-31T08:47:05.144Z,30.60
2018-07-31T08:49:33.516Z,30.40
2018-07-31T08:52:01.942Z,30.40
2018-07-31T08:54:30.383Z,30.40
2018-07-31T08:56:59.402Z,30.30
2018-07-31T08:59:27.926Z,30.20
2018-07-31T09:01:56.338Z,30.00
2018-07-31T09:04:24.754Z,29.80
2018-07-31T09:06:53.215Z,29.80
2018-07-31T09:09:21.626Z,29.90
2018-07-31T09:11:50.025Z,29.90
2018-07-31T09:14:18.438Z,29.90
2018-07-31T09:16:46.838Z,30.20
2018-07-31T09:19:15.328Z,30.50
2018-07-31T09:21:43.723Z,31.00
2018-07-31T09:24:12.312Z,31.30
2018-07-31T09:26:41.652Z,31.50
2018-07-31T09:29:10.048Z,31.50
2018-07-31T09:31:38.437Z,31.50
2018-07-31T09:34:07.033Z,31.60
2018-07-31T09:36:35.509Z,31.90
2018-07-31T09:39:06.319Z,32.20
2018-07-31T09:41:35.211Z,32.50
2018-07-31T09:44:03.795Z,32.70
2018-07-31T09:46:32.308Z,32.90
2018-07-31T09:49:00.710Z,33.00
2018-07-31T09:51:29.147Z,32.80
2018-07-31T09:53:57.674Z,32.60
2018-07-31T09:56:26.998Z,32.40
2018-07-31T09:58:55.404Z,32.30
2018-07-31T10:01:23.844Z,32.10
2018-07-31T10:03:52.272Z,32.10
2018-07-31T10:06:20.700Z,31.90
2018-07-31T10:08:49.353Z,31.80
2018-07-31T10:11:17.746Z,31.80
2018-07-31T10:13:46.172Z,32.10
2018-07-31T10:16:14.542Z,32.30
2018-07-31T10:18:43.038Z,32.50
2018-07-31T10:21:11.500Z,32.60
2018-07-31T10:23:39.972Z,32.70
2018-07-31T10:26:08.362Z,32.60
2018-07-31T10:28:36.784Z,32.40
2018-07-31T10:31:05.230Z,32.20
2018-07-31T10:33:33.573Z,32.00
2018-07-31T10:36:01.983Z,31.90
2018-07-31T10:38:30.403Z,31.40
2018-07-31T10:40:58.810Z,31.30
2018-07-31T10:43:27.221Z,31.40
2018-07-31T10:45:55.643Z,31.60
2018-07-31T10:48:24.103Z,32.00
2018-07-31T10:50:52.695Z,32.10
2018-07-31T10:53:21.073Z,32.30
2018-07-31T10:55:49.467Z,32.50
2018-07-31T10:58:17.926Z,32.80
2018-07-31T11:00:46.577Z,32.80
2018-07-31T11:03:15.041Z,33.20
2018-07-31T11:08:11.522Z,33.30
2018-07-31T11:10:40.123Z,33.10
2018-07-31T11:13:08.544Z,32.80
2018-07-31T11:15:37.088Z,32.50
2018-07-31T11:18:05.620Z,32.20
2018-07-31T11:20:34.116Z,32.00
2018-07-31T11:23:02.562Z,31.70
2018-07-31T11:25:30.992Z,31.60
2018-07-31T11:27:59.424Z,31.50
2018-07-31T11:30:27.904Z,31.50
2018-07-31T11:32:56.334Z,31.70
2018-07-31T11:35:24.915Z,31.80
2018-07-31T11:37:53.381Z,31.50
2018-07-31T11:40:21.819Z,31.60
2018-07-31T11:42:50.398Z,31.60
2018-07-31T11:45:18.836Z,31.60
2018-07-31T11:47:47.245Z,31.70
2018-07-31T11:50:15.704Z,31.60
2018-07-31T11:52:44.415Z,31.60
2018-07-31T11:55:12.803Z,31.50
2018-07-31T11:57:41.736Z,31.40
2018-07-31T12:00:11.830Z,31.40
2018-07-31T12:02:40.385Z,31.30
2018-07-31T12:05:09.062Z,31.30
2018-07-31T12:07:37.654Z,31.30
2018-07-31T12:10:06.586Z,31.60
2018-07-31T12:12:34.972Z,31.70
2018-07-31T12:15:03.425Z,31.90
2018-07-31T12:17:31.824Z,32.10
2018-07-31T12:20:00.203Z,32.10
2018-07-31T12:22:28.616Z,32.20
2018-07-31T12:24:57.041Z,32.40
2018-07-31T12:27:25.431Z,32.80
2018-07-31T12:29:53.832Z,32.90
2018-07-31T12:32:22.335Z,32.80
2018-07-31T12:34:50.716Z,32.70
2018-07-31T12:37:19.112Z,32.60
2018-07-31T12:39:48.478Z,32.40
2018-07-31T12:42:16.874Z,32.10
2018-07-31T12:44:45.684Z,32.10
2018-07-31T12:47:14.126Z,32.30
2018-07-31T12:49:42.617Z,32.50
2018-07-31T12:52:11.000Z,32.70
2018-07-31T12:54:39.388Z,32.70
2018-07-31T12:57:07.814Z,32.70
2018-07-31T12:59:36.397Z,32.80
2018-07-31T13:02:04.911Z,32.80
2018-07-31T13:04:33.301Z,32.80
2018-07-31T13:07:01.873Z,32.60
2018-07-31T13:09:30.259Z,32.40
2018-07-31T13:11:58.685Z,32.20
2018-07-31T13:14:27.071Z,32.20
2018-07-31T13:16:55.512Z,32.40
2018-07-31T13:19:23.908Z,32.60
2018-07-31T13:21:52.345Z,32.60
2018-07-31T13:24:20.773Z,32.40
2018-07-31T13:26:49.201Z,32.20
2018-07-31T13:29:17.591Z,32.10
2018-07-31T13:31:46.123Z,32.20
2018-07-31T13:34:14.503Z,32.40
2018-07-31T13:36:42.942Z,32.50
2018-07-31T13:39:11.539Z,32.50
2018-07-31T13:41:40.116Z,32.30
2018-07-31T13:44:08.725Z,32.20
2018-07-31T13:46:36.955Z,32.00
2018-07-31T13:49:05.651Z,32.10
2018-07-31T13:51:34.031Z,32.30
2018-07-31T13:54:02.415Z,32.60
2018-07-31T13:56:30.843Z,32.70
2018-07-31T13:58:59.240Z,32.60
2018-07-31T14:01:27.634Z,32.60
2018-07-31T14:03:56.103Z,32.60
2018-07-31T14:06:24.503Z,32.70
2018-07-31T14:08:53.083Z,32.50
2018-07-31T14:11:21.542Z,32.40
2018-07-31T14:13:50.205Z,32.40
2018-07-31T14:16:18.602Z,32.50
2018-07-31T14:18:47.040Z,32.50
2018-07-31T14:21:16.329Z,32.50
2018-07-31T14:23:44.732Z,32.10
2018-07-31T14:26:13.148Z,32.10
2018-07-31T14:28:41.669Z,32.10
2018-07-31T14:31:10.138Z,32.00
2018-07-31T14:33:38.528Z,31.80
2018-07-31T14:36:06.953Z,31.80
2018-07-31T14:38:35.368Z,31.80
2018-07-31T14:41:03.776Z,32.00
2018-07-31T14:43:32.255Z,32.20
2018-07-31T14:46:00.665Z,32.20
2018-07-31T14:48:29.137Z,32.30
2018-07-31T14:50:57.585Z,32.30
2018-07-31T14:53:25.960Z,32.30
2018-07-31T14:55:54.392Z,32.30
2018-07-31T14:58:22.803Z,32.30
2018-07-31T15:00:51.226Z,32.40
2018-07-31T15:03:19.655Z,32.30
2018-07-31T15:05:48.103Z,32.30
2018-07-31T15:08:16.571Z,32.30
2018-07-31T15:10:45.653Z,32.10
2018-07-31T15:13:14.017Z,32.20
2018-07-31T15:15:42.504Z,32.20
2018-07-31T15:18:10.964Z,32.30
2018-07-31T15:20:39.440Z,32.30
2018-07-31T15:23:07.884Z,32.20
2018-07-31T15:25:36.552Z,32.20
2018-07-31T15:28:05.002Z,32.00
2018-07-31T15:30:33.372Z,31.90
2018-07-31T15:33:01.931Z,31.70
2018-07-31T15:35:30.375Z,31.60
2018-07-31T15:37:58.786Z,31.50
2018-07-31T15:40:27.218Z,31.60
2018-07-31T15:42:55.691Z,31.60
2018-07-31T15:45:24.124Z,31.60
2018-07-31T15:47:52.505Z,31.50
2018-07-31T15:50:21.419Z,31.40
2018-07-31T15:52:49.839Z,31.20
2018-07-31T15:55:18.296Z,31.20
2018-07-31T15:57:46.700Z,31.10
2018-07-31T16:00:15.180Z,31.10
2018-07-31T16:02:43.512Z,31.10
2018-07-31T16:05:11.944Z,31.00
2018-07-31T16:07:40.346Z,31.00
2018-07-31T16:10:08.804Z,31.00
2018-07-31T16:12:37.447Z,31.00
2018-07-31T16:15:06.016Z,31.00
2018-07-31T16:17:34.618Z,31.00
2018-07-31T16:20:03.119Z,31.00
2018-07-31T16:22:31.689Z,31.00
2018-07-31T16:25:00.096Z,31.00
2018-07-31T16:27:28.520Z,30.90
2018-07-31T16:29:56.896Z,30.80
2018-07-31T16:32:25.320Z,30.70
2018-07-31T16:34:54.735Z,30.60
2018-07-31T16:37:23.204Z,30.50
2018-07-31T16:39:51.803Z,30.50
2018-07-31T16:42:20.432Z,30.50
2018-07-31T16:44:49.049Z,30.50
2018-07-31T16:47:17.503Z,30.50
2018-07-31T16:49:46.225Z,30.50
2018-07-31T16:52:14.787Z,30.50
2018-07-31T16:54:43.419Z,30.50
2018-07-31T16:57:12.084Z,30.50
2018-07-31T16:59:40.688Z,30.50
2018-07-31T17:02:09.082Z,30.50
2018-07-31T17:04:37.513Z,30.50
2018-07-31T17:07:05.937Z,30.60
2018-07-31T17:09:34.593Z,30.60
2018-07-31T17:12:03.914Z,30.60
2018-07-31T17:14:32.420Z,30.70
2018-07-31T17:17:00.887Z,30.80
2018-07-31T17:19:29.279Z,30.80
2018-07-31T17:21:57.721Z,30.70
2018-07-31T17:24:26.190Z,30.60
2018-07-31T17:26:55.099Z,30.70
2018-07-31T17:29:23.594Z,30.50
2018-07-31T17:31:52.072Z,30.50
2018-07-31T17:34:20.596Z,30.40
2018-07-31T17:36:49.001Z,30.40
2018-07-31T17:39:17.463Z,30.30
2018-07-31T17:41:46.804Z,30.30
2018-07-31T17:44:15.281Z,30.30
2018-07-31T17:46:43.641Z,30.30
2018-07-31T17:49:12.104Z,30.40
2018-07-31T17:51:40.664Z,30.30
2018-07-31T17:54:09.136Z,30.30
2018-07-31T17:59:06.189Z,30.20
2018-07-31T18:01:34.595Z,30.10
2018-07-31T18:04:03.058Z,30.10
2018-07-31T18:06:31.471Z,30.10
2018-07-31T18:08:59.947Z,30.00
2018-07-31T18:11:28.339Z,29.90
2018-07-31T18:13:56.749Z,29.90
2018-07-31T18:16:25.238Z,29.80
2018-07-31T18:18:53.764Z,29.70
2018-07-31T18:21:22.230Z,29.70
2018-07-31T18:23:50.851Z,29.60
2018-07-31T18:26:19.391Z,29.60
2018-07-31T18:28:47.835Z,29.50
2018-07-31T18:31:16.286Z,29.40
2018-07-31T18:33:45.702Z,29.40
2018-07-31T18:36:14.272Z,29.30
2018-07-31T18:38:44.128Z,29.40
2018-07-31T18:41:12.739Z,29.30
2018-07-31T18:43:41.052Z,29.20
2018-07-31T18:46:09.471Z,29.20
2018-07-31T18:48:38.077Z,29.20
2018-07-31T18:51:06.617Z,29.20
2018-07-31T18:53:35.048Z,29.10
2018-07-31T18:56:03.483Z,29.20
2018-07-31T18:58:31.951Z,29.10
2018-07-31T19:01:00.479Z,29.10
2018-07-31T19:03:29.066Z,29.10
2018-07-31T19:05:57.667Z,29.10
2018-07-31T19:08:26.272Z,29.00
2018-07-31T19:10:54.708Z,29.00
2018-07-31T19:13:23.218Z,28.90
2018-07-31T19:15:51.730Z,28.80
2018-07-31T19:18:20.126Z,28.70
2018-07-31T19:20:48.564Z,28.70
2018-07-31T19:23:17.159Z,28.60
2018-07-31T19:25:45.612Z,28.60
2018-07-31T19:28:14.406Z,28.60
2018-07-31T19:30:43.040Z,28.60
2018-07-31T19:33:11.467Z,28.50
2018-07-31T19:35:39.869Z,28.60
2018-07-31T19:38:08.611Z,28.70
2018-07-31T19:40:37.123Z,28.60
2018-07-31T19:43:05.555Z,28.70
2018-07-31T19:45:34.821Z,28.70
2018-07-31T19:48:03.372Z,28.60
2018-07-31T19:50:31.963Z,28.60
2018-07-31T19:53:00.483Z,28.50
2018-07-31T19:55:28.892Z,28.50
2018-07-31T19:57:57.325Z,28.40
2018-07-31T20:00:25.808Z,28.30
2018-07-31T20:02:54.231Z,28.10
2018-07-31T20:05:22.663Z,28.00
2018-07-31T20:07:53.384Z,28.00
2018-07-31T20:10:22.026Z,28.00
2018-07-31T20:12:50.527Z,27.90
2018-07-31T20:15:19.036Z,27.80
2018-07-31T20:17:47.445Z,27.90
2018-07-31T20:20:16.159Z,28.00
2018-07-31T20:22:44.573Z,27.90
2018-07-31T20:25:13.231Z,27.90
2018-07-31T20:27:41.706Z,27.80
2018-07-31T20:30:10.133Z,27.70
2018-07-31T20:32:38.628Z,27.70
2018-07-31T20:35:07.060Z,27.90
2018-07-31T20:37:35.495Z,28.00
2018-07-31T20:40:04.091Z,27.90
2018-07-31T20:42:32.502Z,27.90
2018-07-31T20:45:00.924Z,27.70
2018-07-31T20:47:29.343Z,27.60
2018-07-31T20:49:57.831Z,27.50
2018-07-31T20:52:26.313Z,27.50
2018-07-31T20:54:54.647Z,27.60
2018-07-31T20:57:23.107Z,27.70
2018-07-31T20:59:51.720Z,27.70
2018-07-31T21:02:20.069Z,27.70
2018-07-31T21:04:48.547Z,27.50
2018-07-31T21:07:17.103Z,27.50
2018-07-31T21:09:46.005Z,27.40
2018-07-31T21:12:14.901Z,27.40
2018-07-31T21:14:43.335Z,27.20
2018-07-31T21:17:11.768Z,27.30
2018-07-31T21:19:40.183Z,27.20
2018-07-31T21:22:08.580Z,27.10
2018-07-31T21:24:37.041Z,27.10
2018-07-31T21:27:05.461Z,27.10
2018-07-31T21:29:33.923Z,27.10
2018-07-31T21:32:02.379Z,27.00
2018-07-31T21:34:30.793Z,26.90
2018-07-31T21:36:59.187Z,26.90
2018-07-31T21:39:27.606Z,26.90
2018-07-31T21:41:56.101Z,26.80
2018-07-31T21:44:24.507Z,26.80
2018-07-31T21:46:53.331Z,27.00
2018-07-31T21:49:21.743Z,26.80
2018-07-31T21:51:50.252Z,26.90
2018-07-31T21:54:18.668Z,26.90
2018-07-31T21:56:47.080Z,27.00
2018-07-31T21:59:15.587Z,26.80
2018-07-31T22:01:44.078Z,26.80
2018-07-31T22:04:12.519Z,26.80
2018-07-31T22:06:40.924Z,26.80
2018-07-31T22:09:09.640Z,26.90
2018-07-31T22:11:38.051Z,27.00
2018-07-31T22:14:06.490Z,27.10
2018-07-31T22:16:34.992Z,27.10
2018-07-31T22:19:03.416Z,27.10
2018-07-31T22:21:31.880Z,27.10
2018-07-31T22:24:00.280Z,27.10
2018-07-31T22:26:28.760Z,27.10
2018-07-31T22:28:57.318Z,27.10
2018-07-31T22:31:25.744Z,27.10
2018-07-31T22:33:54.132Z,27.10
2018-07-31T22:36:22.548Z,27.10
2018-07-31T22:38:50.988Z,27.10
2018-07-31T22:41:19.416Z,27.00
2018-07-31T22:43:47.781Z,27.00
2018-07-31T22:46:16.204Z,27.00
2018-07-31T22:48:44.633Z,27.00
2018-07-31T22:51:13.164Z,27.00
2018-07-31T22:53:41.545Z,26.90
2018-07-31T22:56:09.944Z,27.00
2018-07-31T22:58:38.376Z,26.90
2018-07-31T23:01:06.865Z,26.80
2018-07-31T23:03:35.260Z,26.80
2018-07-31T23:06:04.264Z,26.80
2018-07-31T23:08:32.712Z,26.80
2018-07-31T23:11:01.126Z,26.80
2018-07-31T23:13:29.504Z,26.80
2018-07-31T23:15:57.966Z,26.80
2018-07-31T23:18:26.416Z,26.80
2018-07-31T23:20:54.830Z,26.70
2018-07-31T23:23:23.229Z,26.70
2018-07-31T23:25:51.640Z,26.70
2018-07-31T23:28:20.036Z,26.70
2018-07-31T23:30:48.460Z,26.70
2018-07-31T23:33:16.868Z,26.60
2018-07-31T23:35:45.278Z,26.60
2018-07-31T23:38:13.758Z,26.60
2018-07-31T23:40:42.149Z,26.70
2018-07-31T23:43:10.581Z,26.70
2018-07-31T23:45:39.082Z,26.70
2018-07-31T23:48:07.487Z,26.70
2018-07-31T23:50:35.900Z,26.60
2018-07-31T23:53:04.352Z,26.60
2018-07-31T23:55:32.885Z,26.60
2018-07-31T23:58:01.242Z,26.70
